AU-0024 weather

Port Fairy
Victoria, Australia

Public forecast

Using degrees Celsius for public forecast. Weather courtesy of forecast.io.

METAR (pilot weather report)

Closest report is Mount Gambier Airport, 79.1 nm (146.5 km) WNW. Retrieved 2019/05/22 18:30 UTC (28 minutes ago):

YMTG 221830Z AUTO 04004KT 0300 // OVC001 05/04 Q1024

TAF (pilot weather forecast)

Closest forecast is Avalon Airport, 105.8 nm (196.0 km) E. Retrieved 2019/05/22 18:00 UTC (58 minutes ago):

TAF YMAV 221714Z 2218/2318 35005KT CAVOK FM230300 35015KT CAVOK FM231200 34010KT CAVOK